createdAt,value
2018-09-24T00:00:33.620Z,99.99
2018-09-24T00:01:33.624Z,99.99
2018-09-24T00:02:33.407Z,99.99
2018-09-24T00:03:33.607Z,99.99
2018-09-24T00:04:33.597Z,99.99
2018-09-24T00:05:33.591Z,99.99
2018-09-24T00:06:33.588Z,99.99
2018-09-24T00:07:33.394Z,99.99
2018-09-24T00:08:33.598Z,99.99
2018-09-24T00:09:33.581Z,99.99
2018-09-24T00:10:33.567Z,99.99
2018-09-24T00:11:33.322Z,99.89
2018-09-24T00:12:33.562Z,99.99
2018-09-24T00:13:33.315Z,99.99
2018-09-24T00:14:33.553Z,98.94
2018-09-24T00:15:33.560Z,98.75
2018-09-24T00:16:33.603Z,98.08
2018-09-24T00:17:33.700Z,96.75
2018-09-24T00:18:33.355Z,96.27
2018-09-24T00:19:33.289Z,95.12
2018-09-24T00:20:33.533Z,95.7
2018-09-24T00:21:33.530Z,95.41
2018-09-24T00:22:33.283Z,95.89
2018-09-24T00:23:33.268Z,96.75
2018-09-24T00:24:33.522Z,96.36
2018-09-24T00:25:33.262Z,95.32
2018-09-24T00:26:33.513Z,95.03
2018-09-24T00:27:33.514Z,95.03
2018-09-24T00:28:33.258Z,95.41
2018-09-24T00:29:33.503Z,96.08
2018-09-24T00:30:33.509Z,95.98
2018-09-24T00:31:33.502Z,96.65
2018-09-24T00:32:33.491Z,96.84
2018-09-24T00:33:33.489Z,97.7
2018-09-24T00:34:33.227Z,97.13
2018-09-24T00:35:33.224Z,96.36
2018-09-24T00:36:33.483Z,96.94
2018-09-24T00:37:33.217Z,95.98
2018-09-24T00:38:33.478Z,96.08
2018-09-24T00:39:33.469Z,95.32
2018-09-24T00:40:33.211Z,94.37
2018-09-24T00:41:33.208Z,94.46
2018-09-24T00:42:33.468Z,95.12
2018-09-24T00:43:33.667Z,95.22
2018-09-24T00:44:33.464Z,95.12
2018-09-24T00:45:33.443Z,95.32
2018-09-24T00:46:33.458Z,94.84
2018-09-24T00:47:33.500Z,95.32
2018-09-24T00:48:33.222Z,95.98
2018-09-24T00:49:33.439Z,96.08
2018-09-24T00:50:33.204Z,96.75
2018-09-24T00:51:33.196Z,97.89
2018-09-24T00:52:33.177Z,97.61
2018-09-24T00:53:33.427Z,98.46
2018-09-24T00:54:33.168Z,98.94
2018-09-24T00:55:33.428Z,99.99
2018-09-24T00:56:33.142Z,99.99
2018-09-24T00:57:33.148Z,99.94
2018-09-24T00:58:33.209Z,99.99
2018-09-24T00:59:33.398Z,99.99
2018-09-24T01:00:33.128Z,99.99
2018-09-24T01:01:33.390Z,99.99
2018-09-24T01:02:33.131Z,99.99
2018-09-24T01:03:33.430Z,99.99
2018-09-24T01:04:33.130Z,99.99
2018-09-24T01:05:33.113Z,99.99
2018-09-24T01:06:33.372Z,99.99
2018-09-24T01:07:33.427Z,99.99
2018-09-24T01:08:33.379Z,99.99
2018-09-24T01:09:33.091Z,99.99
2018-09-24T01:10:33.123Z,99.99
2018-09-24T01:11:33.346Z,99.99
2018-09-24T01:12:33.096Z,99.99
2018-09-24T01:13:33.326Z,99.99
2018-09-24T01:14:33.076Z,99.99
2018-09-24T01:15:33.322Z,99.99
2018-09-24T01:16:33.315Z,99.99
2018-09-24T01:17:33.339Z,99.99
2018-09-24T01:18:33.157Z,99.99
2018-09-24T01:19:33.063Z,99.99
2018-09-24T01:20:33.318Z,99.75
2018-09-24T01:21:33.043Z,99.99
2018-09-24T01:22:33.295Z,99.37
2018-09-24T01:23:33.353Z,99.8
2018-09-24T01:24:33.280Z,99.94
2018-09-24T01:25:33.046Z,99.18
2018-09-24T01:26:33.028Z,99.18
2018-09-24T01:27:33.278Z,99.18
2018-09-24T01:28:33.077Z,98.89
2018-09-24T01:29:33.011Z,98.65
2018-09-24T01:30:33.004Z,99.04
2018-09-24T01:31:32.998Z,98.36
2018-09-24T01:32:33.254Z,97.89
2018-09-24T01:33:33.315Z,96.84
2018-09-24T01:34:32.993Z,95.61
2018-09-24T01:35:33.244Z,96.08
2018-09-24T01:36:32.981Z,96.36
2018-09-24T01:37:32.978Z,97.65
2018-09-24T01:38:33.023Z,97.84
2018-09-24T01:39:32.977Z,96.7
2018-09-24T01:40:32.961Z,96.51
2018-09-24T01:41:33.231Z,96.7
2018-09-24T01:42:33.217Z,96.51
2018-09-24T01:43:33.204Z,96.6
2018-09-24T01:44:33.211Z,97.65
2018-09-24T01:45:33.202Z,97.65
2018-09-24T01:46:33.196Z,98.99
2018-09-24T01:47:33.192Z,99.08
2018-09-24T01:48:33.238Z,96.6
2018-09-24T01:49:32.934Z,96.8
2018-09-24T01:50:33.188Z,96.03
2018-09-24T01:51:33.189Z,95.65
2018-09-24T01:52:33.170Z,95.94
2018-09-24T01:53:33.169Z,95.75
2018-09-24T01:54:32.914Z,96.8
2018-09-24T01:55:33.167Z,95.94
2018-09-24T01:56:33.162Z,95.75
2018-09-24T01:57:33.155Z,96.22
2018-09-24T01:58:33.230Z,96.89
2018-09-24T01:59:33.147Z,98.36
2018-09-24T02:00:32.897Z,97.51
2018-09-24T02:01:33.144Z,96.51
2018-09-24T02:02:33.132Z,97.7
2018-09-24T02:03:33.175Z,97.7
2018-09-24T02:04:32.866Z,97.99
2018-09-24T02:05:32.860Z,96.84
2018-09-24T02:06:33.122Z,96.84
2018-09-24T02:07:32.855Z,96.84
2018-09-24T02:08:33.103Z,96.8
2018-09-24T02:09:32.854Z,98.18
2018-09-24T02:10:33.120Z,98.27
2018-09-24T02:11:33.103Z,98.18
2018-09-24T02:12:33.124Z,97.61
2018-09-24T02:13:33.118Z,97.8
2018-09-24T02:14:33.087Z,97.7
2018-09-24T02:15:33.107Z,96.84
2018-09-24T02:16:33.115Z,96.36
2018-09-24T02:17:32.818Z,95.98
2018-09-24T02:18:33.273Z,96.94
2018-09-24T02:19:33.073Z,96.98
2018-09-24T02:20:33.084Z,98.27
2018-09-24T02:21:32.808Z,97.89
2018-09-24T02:22:32.803Z,97.51
2018-09-24T02:23:33.106Z,97.89
2018-09-24T02:24:33.062Z,97.41
2018-09-24T02:25:32.792Z,98.08
2018-09-24T02:26:33.046Z,97.61
2018-09-24T02:27:32.781Z,97.61
2018-09-24T02:28:33.077Z,97.61
2018-09-24T02:29:32.781Z,96.56
2018-09-24T02:30:33.041Z,96.75
2018-09-24T02:31:33.030Z,96.7
2018-09-24T02:32:33.016Z,97.36
2018-09-24T02:33:33.118Z,97.65
2018-09-24T02:34:33.010Z,97.75
2018-09-24T02:35:32.758Z,98.6
2018-09-24T02:36:32.739Z,98.41
2018-09-24T02:37:32.736Z,98.22
2018-09-24T02:38:33.044Z,99.08
2018-09-24T02:39:32.727Z,98.32
2018-09-24T02:40:32.984Z,99.08
2018-09-24T02:41:32.980Z,98.7
2018-09-24T02:42:32.975Z,98.99
2018-09-24T02:43:32.713Z,99.99
2018-09-24T02:44:32.987Z,99.27
2018-09-24T02:45:32.959Z,99.08
2018-09-24T02:46:32.707Z,98.7
2018-09-24T02:47:32.990Z,99.75
2018-09-24T02:48:32.746Z,99.46
2018-09-24T02:49:32.688Z,98.7
2018-09-24T02:50:32.942Z,99.18
2018-09-24T02:51:32.682Z,99.37
2018-09-24T02:52:32.925Z,99.99
2018-09-24T02:53:32.726Z,99.75
2018-09-24T02:54:32.665Z,98.89
2018-09-24T02:55:32.929Z,98.7
2018-09-24T02:56:32.919Z,99.08
2018-09-24T02:57:32.653Z,98.99
2018-09-24T02:58:32.723Z,98.99
2018-09-24T02:59:32.642Z,99.18
2018-09-24T03:00:32.899Z,99.65
2018-09-24T03:01:32.645Z,99.55
2018-09-24T03:02:32.629Z,98.41
2018-09-24T03:03:32.942Z,98.89
2018-09-24T03:04:32.889Z,98.99
2018-09-24T03:05:32.875Z,98.6
2018-09-24T03:06:32.877Z,98.89
2018-09-24T03:07:32.611Z,98.51
2018-09-24T03:08:32.869Z,98.7
2018-09-24T03:09:32.856Z,98.79
2018-09-24T03:10:32.599Z,98.03
2018-09-24T03:11:32.592Z,97.94
2018-09-24T03:12:32.853Z,98.13
2018-09-24T03:13:32.841Z,97.65
2018-09-24T03:14:32.578Z,97.94
2018-09-24T03:15:32.836Z,97.36
2018-09-24T03:16:32.825Z,97.36
2018-09-24T03:17:32.843Z,97.27
2018-09-24T03:18:32.712Z,97.56
2018-09-24T03:19:32.815Z,97.36
2018-09-24T03:20:32.568Z,97.46
2018-09-24T03:21:32.843Z,97.36
2018-09-24T03:22:32.551Z,97.65
2018-09-24T03:23:32.819Z,97.46
2018-09-24T03:24:32.806Z,98.22
2018-09-24T03:25:32.789Z,98.22
2018-09-24T03:26:32.792Z,98.89
2018-09-24T03:27:32.787Z,97.36
2018-09-24T03:28:32.516Z,97.17
2018-09-24T03:29:32.802Z,96.98
2018-09-24T03:30:32.506Z,96.7
2018-09-24T03:31:32.764Z,96.8
2018-09-24T03:32:32.765Z,96.6
2018-09-24T03:33:32.556Z,97.65
2018-09-24T03:34:32.501Z,97.56
2018-09-24T03:35:32.501Z,98.6
2018-09-24T03:36:32.488Z,98.13
2018-09-24T03:37:32.483Z,98.03
2018-09-24T03:38:32.743Z,98.13
2018-09-24T03:39:32.727Z,98.32
2018-09-24T03:40:32.775Z,98.32
2018-09-24T03:41:32.464Z,97.36
2018-09-24T03:42:32.481Z,98.03
2018-09-24T03:43:32.492Z,98.13
2018-09-24T03:44:32.720Z,98.6
2018-09-24T03:45:32.707Z,98.03
2018-09-24T03:46:32.707Z,97.36
2018-09-24T03:47:32.443Z,97.65
2018-09-24T03:48:32.442Z,96.7
2018-09-24T03:49:32.694Z,97.27
2018-09-24T03:50:32.426Z,97.17
2018-09-24T03:51:32.680Z,98.32
2018-09-24T03:52:32.423Z,98.7
2018-09-24T03:53:32.668Z,98.79
2018-09-24T03:54:32.676Z,98.32
2018-09-24T03:55:32.687Z,99.08
2018-09-24T03:56:32.665Z,98.79
2018-09-24T03:57:32.664Z,98.46
2018-09-24T03:58:32.648Z,99.13
2018-09-24T03:59:32.672Z,98.36
2018-09-24T04:00:32.659Z,99.99
2018-09-24T04:01:32.635Z,99.03
2018-09-24T04:02:32.636Z,98.55
2018-09-24T04:03:32.641Z,99.13
2018-09-24T04:04:32.708Z,99.98
2018-09-24T04:05:32.633Z,99.99
2018-09-24T04:06:32.615Z,99.79
2018-09-24T04:07:32.353Z,99.98
2018-09-24T04:08:32.359Z,99.41
2018-09-24T04:09:32.696Z,99.98
2018-09-24T04:10:32.604Z,99.79
2018-09-24T04:11:32.336Z,99.99
2018-09-24T04:12:32.337Z,99.99
2018-09-24T04:13:32.372Z,99.99
2018-09-24T04:14:32.584Z,99.99
2018-09-24T04:15:32.316Z,99.99
2018-09-24T04:16:32.319Z,99.99
2018-09-24T04:17:32.336Z,99.99
2018-09-24T04:18:32.553Z,99.99
2018-09-24T04:19:32.668Z,99.99
2018-09-24T04:20:32.558Z,99.99
2018-09-24T04:21:32.540Z,99.99
2018-09-24T04:22:32.539Z,99.99
2018-09-24T04:23:32.533Z,99.99
2018-09-24T04:24:32.532Z,99.99
2018-09-24T04:25:32.265Z,99.99
2018-09-24T04:26:32.607Z,99.99
2018-09-24T04:27:32.508Z,99.99
2018-09-24T04:28:32.250Z,99.99
2018-09-24T04:29:32.502Z,99.99
2018-09-24T04:30:32.250Z,99.99
2018-09-24T04:31:32.510Z,99.99
2018-09-24T04:32:32.491Z,99.99
2018-09-24T04:33:32.488Z,99.99
2018-09-24T04:34:32.473Z,99.99
2018-09-24T04:35:32.478Z,99.99
2018-09-24T04:36:32.215Z,99.99
2018-09-24T04:37:32.206Z,99.99
2018-09-24T04:38:32.207Z,99.99
2018-09-24T04:39:32.267Z,99.99
2018-09-24T04:40:32.455Z,99.99
2018-09-24T04:41:32.465Z,99.99
2018-09-24T04:42:32.442Z,99.99
2018-09-24T04:43:32.438Z,99.99
2018-09-24T04:44:32.432Z,99.99
2018-09-24T04:45:32.430Z,99.99
2018-09-24T04:46:32.425Z,99.99
2018-09-24T04:47:32.428Z,99.99
2018-09-24T04:48:32.411Z,99.99
2018-09-24T04:49:32.404Z,99.99
2018-09-24T04:50:32.407Z,99.99
2018-09-24T04:51:32.396Z,99.99
2018-09-24T04:52:32.388Z,99.99
2018-09-24T04:53:32.386Z,99.99
2018-09-24T04:54:32.391Z,99.99
2018-09-24T04:55:32.393Z,99.99
2018-09-24T04:56:32.120Z,99.99
2018-09-24T04:57:32.366Z,99.99
2018-09-24T04:58:32.448Z,99.99
2018-09-24T04:59:32.103Z,99.99
2018-09-24T05:00:32.349Z,99.99
2018-09-24T05:01:32.092Z,99.99
2018-09-24T05:02:32.342Z,99.99
2018-09-24T05:03:32.336Z,99.99
2018-09-24T05:04:32.328Z,99.99
2018-09-24T05:05:32.338Z,99.99
2018-09-24T05:06:32.066Z,99.99
2018-09-24T05:07:32.313Z,99.99
2018-09-24T05:08:32.311Z,99.99
2018-09-24T05:09:32.303Z,99.99
2018-09-24T05:10:32.300Z,99.99
2018-09-24T05:11:32.039Z,99.99
2018-09-24T05:12:32.288Z,99.99
2018-09-24T05:13:32.291Z,99.99
2018-09-24T05:14:32.027Z,99.99
2018-09-24T05:15:32.026Z,99.99
2018-09-24T05:16:32.412Z,99.99
2018-09-24T05:17:32.009Z,99.99
2018-09-24T05:18:32.261Z,99.99
2018-09-24T05:19:32.000Z,99.99
2018-09-24T05:20:32.258Z,99.99
2018-09-24T05:21:32.245Z,99.99
2018-09-24T05:22:32.244Z,99.99
2018-09-24T05:23:31.975Z,99.99
2018-09-24T05:24:32.239Z,99.99
2018-09-24T05:25:32.226Z,99.99
2018-09-24T05:26:32.287Z,99.99
2018-09-24T05:27:32.394Z,99.99
2018-09-24T05:28:32.214Z,99.99
2018-09-24T05:29:32.212Z,99.99
2018-09-24T05:30:32.209Z,99.99
2018-09-24T05:31:31.942Z,99.99
2018-09-24T05:32:32.388Z,99.99
2018-09-24T05:33:31.927Z,99.99
2018-09-24T05:34:32.336Z,99.99
2018-09-24T05:35:31.919Z,99.99
2018-09-24T05:36:32.181Z,99.99
2018-09-24T05:37:32.177Z,99.99
2018-09-24T05:38:32.160Z,99.99
2018-09-24T05:39:31.897Z,99.99
2018-09-24T05:40:32.160Z,99.99
2018-09-24T05:41:31.891Z,99.99
2018-09-24T05:42:31.884Z,99.99
2018-09-24T05:43:32.138Z,99.99
2018-09-24T05:44:31.874Z,99.99
2018-09-24T05:45:32.134Z,99.99
2018-09-24T05:46:31.866Z,99.99
2018-09-24T05:47:31.862Z,99.99
2018-09-24T05:48:32.109Z,99.99
2018-09-24T05:49:31.849Z,99.99
2018-09-24T05:50:32.100Z,99.99
2018-09-24T05:51:32.102Z,99.99
2018-09-24T05:52:32.090Z,99.99
2018-09-24T05:53:32.087Z,99.99
2018-09-24T05:54:32.088Z,99.99
2018-09-24T05:55:32.082Z,99.99
2018-09-24T05:56:32.070Z,99.99
2018-09-24T05:57:31.812Z,99.99
2018-09-24T05:58:32.063Z,99.99
2018-09-24T05:59:32.058Z,99.99
2018-09-24T06:00:31.797Z,99.99
2018-09-24T06:01:32.051Z,99.99
2018-09-24T06:02:32.046Z,99.99
2018-09-24T06:03:32.063Z,99.99
2018-09-24T06:04:32.145Z,99.41
2018-09-24T06:05:32.036Z,99.65
2018-09-24T06:06:32.044Z,99.75
2018-09-24T06:07:32.032Z,99.22
2018-09-24T06:08:32.033Z,99.94
2018-09-24T06:09:32.013Z,99.75
2018-09-24T06:10:31.756Z,99.94
2018-09-24T06:11:31.757Z,99.18
2018-09-24T06:12:32.015Z,99.37
2018-09-24T06:13:32.116Z,99.18
2018-09-24T06:14:31.755Z,98.32
2018-09-24T06:15:32.031Z,98.51
2018-09-24T06:16:31.994Z,98.51
2018-09-24T06:17:31.986Z,98.89
2018-09-24T06:18:31.980Z,98.89
2018-09-24T06:19:32.046Z,98.7
2018-09-24T06:20:31.978Z,98.41
2018-09-24T06:21:31.958Z,98.03
2018-09-24T06:22:31.953Z,98.89
2018-09-24T06:23:31.701Z,98.32
2018-09-24T06:24:31.952Z,98.22
2018-09-24T06:25:31.941Z,98.41
2018-09-24T06:26:31.703Z,98.22
2018-09-24T06:27:31.762Z,98.03
2018-09-24T06:28:31.749Z,97.36
2018-09-24T06:29:31.951Z,96.98
2018-09-24T06:30:31.929Z,95.94
2018-09-24T06:31:31.927Z,96.51
2018-09-24T06:32:31.923Z,97.46
2018-09-24T06:33:31.656Z,96.6
2018-09-24T06:34:31.954Z,96.89
2018-09-24T06:35:31.915Z,96.7
2018-09-24T06:36:31.645Z,97.36
2018-09-24T06:37:31.897Z,96.8
2018-09-24T06:38:31.888Z,96.7
2018-09-24T06:39:31.886Z,95.84
2018-09-24T06:40:31.889Z,95.84
2018-09-24T06:41:31.878Z,94.7
2018-09-24T06:42:31.873Z,95.08
2018-09-24T06:43:31.874Z,95.27
2018-09-24T06:44:31.868Z,94.89
2018-09-24T06:45:31.861Z,95.22
2018-09-24T06:46:31.601Z,95.51
2018-09-24T06:47:31.856Z,95.12
2018-09-24T06:48:31.853Z,94.84
2018-09-24T06:49:31.917Z,93.6
2018-09-24T06:50:31.844Z,93.12
2018-09-24T06:51:31.599Z,92.55
2018-09-24T06:52:31.581Z,91.5
2018-09-24T06:53:31.836Z,91.41
2018-09-24T06:54:31.827Z,91.69
2018-09-24T06:55:31.827Z,90.74
2018-09-24T06:56:31.821Z,92.84
2018-09-24T06:57:31.823Z,90.98
2018-09-24T06:58:31.834Z,87.45
2018-09-24T06:59:31.928Z,84.48
2018-09-24T07:00:31.584Z,80.22
2018-09-24T07:01:31.556Z,79.5
2018-09-24T07:02:31.556Z,77.11
2018-09-24T07:03:31.829Z,75.52
2018-09-24T07:04:31.876Z,73.9
2018-09-24T07:05:32.121Z,74.57
2018-09-24T07:06:31.806Z,74.32
2018-09-24T07:07:31.556Z,72.12
2018-09-24T07:08:31.810Z,71.64
2018-09-24T07:09:31.802Z,71.55
2018-09-24T07:10:31.801Z,72.88
2018-09-24T07:11:31.799Z,74.38
2018-09-24T07:12:31.539Z,73.14
2018-09-24T07:13:31.531Z,72.75
2018-09-24T07:14:31.792Z,74.19
2018-09-24T07:15:31.790Z,75.49
2018-09-24T07:16:31.790Z,77.3
2018-09-24T07:17:31.526Z,77.45
2018-09-24T07:18:31.784Z,77.94
2018-09-24T07:19:31.842Z,79.46
2018-09-24T07:20:31.528Z,79.8
2018-09-24T07:21:31.884Z,78.94
2018-09-24T07:22:31.525Z,79.61
2018-09-24T07:23:31.534Z,79.23
2018-09-24T07:24:31.517Z,75.83
2018-09-24T07:25:31.529Z,75.1
2018-09-24T07:26:31.788Z,76.06
2018-09-24T07:27:31.543Z,76.54
2018-09-24T07:28:32.029Z,77.26
2018-09-24T07:29:31.534Z,75.1
2018-09-24T07:30:31.511Z,74.15
2018-09-24T07:31:31.776Z,72.56
2018-09-24T07:32:31.771Z,71.61
2018-09-24T07:33:31.763Z,69.82
2018-09-24T07:34:31.772Z,68.42
2018-09-24T07:35:31.769Z,65.68
2018-09-24T07:36:31.764Z,65.58
2018-09-24T07:37:31.517Z,64.28
2018-09-24T07:38:31.769Z,65.39
2018-09-24T07:39:31.773Z,65.11
2018-09-24T07:40:31.517Z,64.43
2018-09-24T07:41:31.519Z,65.78
2018-09-24T07:42:31.780Z,68.1
2018-09-24T07:43:31.951Z,69.79
2018-09-24T07:44:31.777Z,71.22
2018-09-24T07:45:31.517Z,70.36
2018-09-24T07:46:31.777Z,70.56
2018-09-24T07:47:31.776Z,68.39
2018-09-24T07:48:31.773Z,65.58
2018-09-24T07:49:31.777Z,62.87
2018-09-24T07:50:31.519Z,59.06
2018-09-24T07:51:31.776Z,56.89
2018-09-24T07:52:31.520Z,55.29
2018-09-24T07:53:31.517Z,53.2
2018-09-24T07:54:31.786Z,54.42
2018-09-24T07:55:31.917Z,54.39
2018-09-24T07:56:31.783Z,55.64
2018-09-24T07:57:31.785Z,55.26
2018-09-24T07:58:31.802Z,55.35
2018-09-24T07:59:31.781Z,55.07
2018-09-24T08:00:31.527Z,53.66
2018-09-24T08:01:31.790Z,53.75
2018-09-24T08:02:31.533Z,53.27
2018-09-24T08:03:31.535Z,52.43
2018-09-24T08:04:31.793Z,52.17
2018-09-24T08:05:31.799Z,51.69
2018-09-24T08:06:31.804Z,50.63
2018-09-24T08:07:31.603Z,51.88
2018-09-24T08:08:31.814Z,53.2
2018-09-24T08:09:31.551Z,54.97
2018-09-24T08:10:31.807Z,56.02
2018-09-24T08:11:31.807Z,57.53
2018-09-24T08:12:31.569Z,58.84
2018-09-24T08:13:31.563Z,60.7
2018-09-24T08:14:31.810Z,63.26
2018-09-24T08:15:31.818Z,63.32
2018-09-24T08:16:31.562Z,64.37
2018-09-24T08:17:31.825Z,66.06
2018-09-24T08:18:31.835Z,67.3
2018-09-24T08:19:31.843Z,68.41
2018-09-24T08:20:31.825Z,68.04
2018-09-24T08:21:31.587Z,68.04
2018-09-24T08:22:31.826Z,68.1
2018-09-24T08:23:31.824Z,68.8
2018-09-24T08:24:31.830Z,68.48
2018-09-24T08:25:31.572Z,68.57
2018-09-24T08:26:31.835Z,69.72
2018-09-24T08:27:31.840Z,70.1
2018-09-24T08:28:31.568Z,70.87
2018-09-24T08:29:31.830Z,70.96
2018-09-24T08:30:31.827Z,71.06
2018-09-24T08:31:31.833Z,70.96
2018-09-24T08:32:31.829Z,71.47
2018-09-24T08:33:31.834Z,70.9
2018-09-24T08:34:31.582Z,68.9
2018-09-24T08:35:31.576Z,68.41
2018-09-24T08:36:31.829Z,66.5
2018-09-24T08:37:31.833Z,66.5
2018-09-24T08:38:31.562Z,67.27
2018-09-24T08:39:31.579Z,65.45
2018-09-24T08:40:31.819Z,65.17
2018-09-24T08:41:31.815Z,64.22
2018-09-24T08:42:31.570Z,64.69
2018-09-24T08:43:31.818Z,65.64
2018-09-24T08:44:31.818Z,65.36
2018-09-24T08:45:31.813Z,65.2
2018-09-24T08:46:31.554Z,65.2
2018-09-24T08:47:31.813Z,65.39
2018-09-24T08:48:31.558Z,66.22
2018-09-24T08:49:31.811Z,67.08
2018-09-24T08:50:31.812Z,66.63
2018-09-24T08:51:31.821Z,66.54
2018-09-24T08:52:31.805Z,66.25
2018-09-24T08:53:31.608Z,66.44
2018-09-24T08:54:31.809Z,65.68
2018-09-24T08:55:31.818Z,63.93
2018-09-24T08:56:31.817Z,63.07
2018-09-24T08:57:31.544Z,62.3
2018-09-24T08:58:31.540Z,63.26
2018-09-24T08:59:31.790Z,63.45
2018-09-24T09:00:31.787Z,63.76
2018-09-24T09:01:31.549Z,63.86
2018-09-24T09:02:31.856Z,63.39
2018-09-24T09:03:31.556Z,62.55
2018-09-24T09:04:31.792Z,60.06
2018-09-24T09:05:31.790Z,60.55
2018-09-24T09:06:31.544Z,59.78
2018-09-24T09:07:31.534Z,58.73
2018-09-24T09:08:31.791Z,58.83
2018-09-24T09:09:31.789Z,58.15
2018-09-24T09:10:31.790Z,57.87
2018-09-24T09:11:31.526Z,59.18
2018-09-24T09:12:31.782Z,60.23
2018-09-24T09:13:31.781Z,60.61
2018-09-24T09:14:31.526Z,60.71
2018-09-24T09:15:31.776Z,61.28
2018-09-24T09:16:31.976Z,61.47
2018-09-24T09:17:31.520Z,60.9
2018-09-24T09:18:31.776Z,60.33
2018-09-24T09:19:31.523Z,59.56
2018-09-24T09:20:31.522Z,59.27
2018-09-24T09:21:31.525Z,59.84
2018-09-24T09:22:31.511Z,58.89
2018-09-24T09:23:31.517Z,58.03
2018-09-24T09:24:31.774Z,57.46
2018-09-24T09:25:31.764Z,57.93
2018-09-24T09:26:31.514Z,58.12
2018-09-24T09:27:31.768Z,58.22
2018-09-24T09:28:31.764Z,57.93
2018-09-24T09:29:31.952Z,58.12
2018-09-24T09:30:31.794Z,58.7
2018-09-24T09:31:31.525Z,58.89
2018-09-24T09:32:31.761Z,58.61
2018-09-24T09:33:31.799Z,59.27
2018-09-24T09:34:31.775Z,59.75
2018-09-24T09:35:31.504Z,59.75
2018-09-24T09:36:31.773Z,60.13
2018-09-24T09:37:31.753Z,58.89
2018-09-24T09:38:31.754Z,58.12
2018-09-24T09:39:31.751Z,56.69
2018-09-24T09:40:31.748Z,57.75
2018-09-24T09:41:31.763Z,58.67
2018-09-24T09:42:31.511Z,58.86
2018-09-24T09:43:31.491Z,59.34
2018-09-24T09:44:31.742Z,59.63
2018-09-24T09:45:31.747Z,60.1
2018-09-24T09:46:31.744Z,61.06
2018-09-24T09:47:31.483Z,60.87
2018-09-24T09:48:31.734Z,60.58
2018-09-24T09:49:31.748Z,60.58
2018-09-24T09:50:31.741Z,60.2
2018-09-24T09:51:31.483Z,59.84
2018-09-24T09:52:31.475Z,59.75
2018-09-24T09:53:31.804Z,58.98
2018-09-24T09:54:31.473Z,59.56
2018-09-24T09:55:31.473Z,59.66
2018-09-24T09:56:31.471Z,59.56
2018-09-24T09:57:31.744Z,59.56
2018-09-24T09:58:31.505Z,59.08
2018-09-24T09:59:31.464Z,58.41
2018-09-24T10:00:31.753Z,58.73
2018-09-24T10:01:31.462Z,57.97
2018-09-24T10:02:31.720Z,58.15
2018-09-24T10:03:31.722Z,55.86
2018-09-24T10:04:31.475Z,56.15
2018-09-24T10:05:31.717Z,56.15
2018-09-24T10:06:31.715Z,55.86
2018-09-24T10:07:31.471Z,54.33
2018-09-24T10:08:31.724Z,55.19
2018-09-24T10:09:31.714Z,54.43
2018-09-24T10:10:31.704Z,54.68
2018-09-24T10:11:31.451Z,55.54
2018-09-24T10:12:31.715Z,56.6
2018-09-24T10:13:31.705Z,57.55
2018-09-24T10:14:31.705Z,57.26
2018-09-24T10:15:31.520Z,57.17
2018-09-24T10:16:31.712Z,57.75
2018-09-24T10:17:31.444Z,58.12
2018-09-24T10:18:31.744Z,56.88
2018-09-24T10:19:31.703Z,56.5
2018-09-24T10:20:31.691Z,56.69
2018-09-24T10:21:31.697Z,56.79
2018-09-24T10:22:31.770Z,56.6
2018-09-24T10:23:31.442Z,55.47
2018-09-24T10:24:31.453Z,55.57
2018-09-24T10:25:31.696Z,54.59
2018-09-24T10:26:31.692Z,55.47
2018-09-24T10:27:31.693Z,54.43
2018-09-24T10:28:31.429Z,54.04
2018-09-24T10:29:31.682Z,53.85
2018-09-24T10:30:31.694Z,53.37
2018-09-24T10:31:31.427Z,52.99
2018-09-24T10:32:31.431Z,52.89
2018-09-24T10:33:31.798Z,53.08
2018-09-24T10:34:31.684Z,53.02
2018-09-24T10:35:31.692Z,52.92
2018-09-24T10:36:31.685Z,54.07
2018-09-24T10:37:31.684Z,54.55
2018-09-24T10:38:31.698Z,54.45
2018-09-24T10:39:31.715Z,54.26
2018-09-24T10:40:31.681Z,54.93
2018-09-24T10:41:31.680Z,55.29
2018-09-24T10:42:31.683Z,55.29
2018-09-24T10:43:31.683Z,55.1
2018-09-24T10:44:31.414Z,55.19
2018-09-24T10:45:31.687Z,55.47
2018-09-24T10:46:31.672Z,55.47
2018-09-24T10:47:31.669Z,55.86
2018-09-24T10:48:31.664Z,56.43
2018-09-24T10:49:31.671Z,54.43
2018-09-24T10:50:31.408Z,53.47
2018-09-24T10:51:31.413Z,51.84
2018-09-24T10:52:31.670Z,51.62
2018-09-24T10:53:31.679Z,52.01
2018-09-24T10:54:31.408Z,52.1
2018-09-24T10:55:31.666Z,53.06
2018-09-24T10:56:31.404Z,53.82
2018-09-24T10:57:31.661Z,53.53
2018-09-24T10:58:31.662Z,54.04
2018-09-24T10:59:31.945Z,54.23
2018-09-24T11:00:31.672Z,54.43
2018-09-24T11:01:31.396Z,54.55
2018-09-24T11:02:31.406Z,53.3
2018-09-24T11:03:31.659Z,53.69
2018-09-24T11:04:31.656Z,53.78
2018-09-24T11:05:31.750Z,54.07
2018-09-24T11:06:31.664Z,53.69
2018-09-24T11:07:31.661Z,53.75
2018-09-24T11:08:31.657Z,54.52
2018-09-24T11:09:31.661Z,53.85
2018-09-24T11:10:31.648Z,52.89
2018-09-24T11:11:31.651Z,51.56
2018-09-24T11:12:31.653Z,51.91
2018-09-24T11:13:31.645Z,52.01
2018-09-24T11:14:31.641Z,51.53
2018-09-24T11:15:31.659Z,52.29
2018-09-24T11:16:31.577Z,52.87
2018-09-24T11:17:32.072Z,53.82
2018-09-24T11:18:31.654Z,52.89
2018-09-24T11:19:31.372Z,52.99
2018-09-24T11:20:31.642Z,52.51
2018-09-24T11:21:31.371Z,52.7
2018-09-24T11:22:31.628Z,52.13
2018-09-24T11:23:31.695Z,52.03
2018-09-24T11:24:31.369Z,52.51
2018-09-24T11:25:31.625Z,52.89
2018-09-24T11:26:34.394Z,52.7
2018-09-24T11:27:31.370Z,52.89
2018-09-24T11:28:31.624Z,52.92
2018-09-24T11:29:31.877Z,52.83
2018-09-24T11:30:31.378Z,51.51
2018-09-24T11:31:31.648Z,51.32
2018-09-24T11:32:31.372Z,50.74
2018-09-24T11:33:31.369Z,50.36
2018-09-24T11:34:31.627Z,50.26
2018-09-24T11:35:31.628Z,49.69
2018-09-24T11:36:31.634Z,50.93
2018-09-24T11:37:31.752Z,51.1
2018-09-24T11:38:31.353Z,51.68
2018-09-24T11:39:31.609Z,51.2
2018-09-24T11:40:31.616Z,51.68
2018-09-24T11:41:31.609Z,52.15
2018-09-24T11:42:31.612Z,53.11
2018-09-24T11:43:31.602Z,52.34
2018-09-24T11:44:31.349Z,52.15
2018-09-24T11:45:31.349Z,51.97
2018-09-24T11:46:31.778Z,51.2
2018-09-24T11:47:31.608Z,51.01
2018-09-24T11:48:31.606Z,50.62
2018-09-24T11:49:31.350Z,50.81
2018-09-24T11:50:31.662Z,51.01
2018-09-24T11:51:31.346Z,50.52
2018-09-24T11:52:31.596Z,50.34
2018-09-24T11:53:31.598Z,51.68
2018-09-24T11:54:31.348Z,51.75
2018-09-24T11:55:31.339Z,52.61
2018-09-24T11:56:31.337Z,53.37
2018-09-24T11:57:31.597Z,53.37
2018-09-24T11:58:31.355Z,52.89
2018-09-24T11:59:31.365Z,52.99
2018-09-24T12:00:31.334Z,52.99
2018-09-24T12:01:31.343Z,52.32
2018-09-24T12:02:31.679Z,52.7
2018-09-24T12:03:31.592Z,52.92
2018-09-24T12:04:31.590Z,52.63
2018-09-24T12:05:31.601Z,50.72
2018-09-24T12:06:31.601Z,50.07
2018-09-24T12:07:31.584Z,50.15
2018-09-24T12:08:31.592Z,50.62
2018-09-24T12:09:31.334Z,50.05
2018-09-24T12:10:31.373Z,49.79
2018-09-24T12:11:31.585Z,48.8
2018-09-24T12:12:31.585Z,48.44
2018-09-24T12:13:31.328Z,48.52
2018-09-24T12:14:31.583Z,48.71
2018-09-24T12:15:31.589Z,48.8
2018-09-24T12:16:31.583Z,48.25
2018-09-24T12:17:31.592Z,48.25
2018-09-24T12:18:31.335Z,48.16
2018-09-24T12:19:31.339Z,48.25
2018-09-24T12:20:31.334Z,48.93
2018-09-24T12:21:31.592Z,49.4
2018-09-24T12:22:31.338Z,50.26
2018-09-24T12:23:31.637Z,50.46
2018-09-24T12:24:31.594Z,50.17
2018-09-24T12:25:32.124Z,50.07
2018-09-24T12:26:31.578Z,49.88
2018-09-24T12:27:31.578Z,48.18
2018-09-24T12:28:31.335Z,48.18
2018-09-24T12:29:31.319Z,47.51
2018-09-24T12:30:31.573Z,47.49
2018-09-24T12:31:31.582Z,46.15
2018-09-24T12:32:31.315Z,45.96
2018-09-24T12:33:31.580Z,45.57
2018-09-24T12:34:31.603Z,45.38
2018-09-24T12:35:31.643Z,45.76
2018-09-24T12:36:31.688Z,45.48
2018-09-24T12:37:31.314Z,46.82
2018-09-24T12:38:31.583Z,45.48
2018-09-24T12:39:31.574Z,45.76
2018-09-24T12:40:31.583Z,46.15
2018-09-24T12:41:31.620Z,46.72
2018-09-24T12:42:31.577Z,46.44
2018-09-24T12:43:31.569Z,45.57
2018-09-24T12:44:31.567Z,46.15
2018-09-24T12:45:31.310Z,46.34
2018-09-24T12:46:31.312Z,45.21
2018-09-24T12:47:31.563Z,44.35
2018-09-24T12:48:31.563Z,43.59
2018-09-24T12:49:31.561Z,43.39
2018-09-24T12:50:31.621Z,44.71
2018-09-24T12:51:31.311Z,45.76
2018-09-24T12:52:31.563Z,46.82
2018-09-24T12:53:31.755Z,47.58
2018-09-24T12:54:31.558Z,47.87
2018-09-24T12:55:31.565Z,49.19